Salgado Filho Airport
SBPA : rendu visible

Aérodrome :











RETROUVEZ-NOUS SUR...

 
LOGIN :

S'inscrire | Disclaimer

   EN    FR    IT 

 









Légende :    VFR   VFR Marginal   IFR   IFR Intensif   IFR Très Intensif
Visi : 
Plafond : 
>= 8 km
>= 3000ft
5 à 8 km
1000 à 3000 ft
1500m à 5 km
500 à 1000 ft
800 à 1500m
200 à 500 ft
< 800m
< 200 ft
Symboles :   Orages  Brouillard  Fortes neiges  Fortes précipitations  Vent > 20 kt






- Altitude de l'aérodrome : 11 ft
- Code IATA : POA


SBPA - Salgado Filho

DERNIER METAR :
  • 041800Z VRB03KT 9999 FEW040 26/11 Q1012

METARs EXPIRÉS :
  • 041700Z 31006KT 220V360 9999 SCT035 25/12 Q1013
  • 041600Z 28006KT 220V320 9999 SCT030 24/14 Q1014

TAF TAF SBPA
Valide du 04 à 18h jusqu'au 05 à 18h UTC


041500Z 0418/0518 25008KT 9999 SCT035 TN15/0508Z TX27/0518Z
BECMG 0421/0423 21007KT CAVOK
BECMG 0500/0502 10007KT
BECMG 0505/0507 07007KT
PROB30 0508/0511 5000 BR NSC
BECMG 0509/0511 30007KT 9999 SCT030
BECMG 0515/0517 21007KT SCT040 RMK PEJ



MET'MAP, la Météo Aéronautique d'un coup d'oeil ! - Copyright ORBIFLY Décembre 2007 - Disclaimer

ORBIFLY MET'MAP TEAM :

Programmation & Développement : Alexandra Zaïnal
Sur une idée originale de : Baudouin d'Aumeries
Assistance à la programmation : Marc-Olivier Méhu
Soutien technique & logistique : Manuel Goepfert

Contact : metmap@orbifly.com




SOURCES & CREDITS :

   NOAA       Earth
Advisory